Time;durP1;ratioP1;P1;durP2;ratioP2;P2;SDS_P1;SDS_P2;PMS_P1;PMS_P2;Temp;Humidity;BMP_temperature;BMP_pressure;BME280_temperature;BME280_humidity;BME280_pressure;Samples;Min_cycle;Max_cycle;Signal;HPM_P1;HPM_P2
2022/09/16 00:00:05;;;;;;;;;;;14.10;99.90;;;;;;5062593;28;19935;-83
2022/09/16 00:02:32;;;;;;;;;;;14.10;99.90;;;;;;5069375;28;19932;-84
2022/09/16 00:05:00;;;;;;;;;;;14.10;99.90;;;;;;5046360;28;19925;-83
2022/09/16 00:07:27;;;;;;;;;;;14.10;99.90;;;;;;5072653;28;19932;-83
2022/09/16 00:09:53;;;;;;;;;;;14.10;99.90;;;;;;5054631;28;19928;-83
2022/09/16 00:12:20;;;;;;;;;;;14.10;99.90;;;;;;5071783;28;20015;-83
2022/09/16 00:14:47;;;;;;;;;;;14.10;99.90;;;;;;5053693;28;19940;-83
2022/09/16 00:17:14;;;;;;;;;;;14.10;99.90;;;;;;5050079;28;19936;-83
2022/09/16 00:19:41;;;;;;;;;;;14.10;99.90;;;;;;5064175;28;19936;-83
2022/09/16 00:22:09;;;;;;;;;;;14.10;99.90;;;;;;5068405;28;19933;-83
2022/09/16 00:24:35;;;;;;;;;;;14.00;99.90;;;;;;5075861;28;19977;-83
2022/09/16 00:27:04;;;;;;;;;;;13.90;99.90;;;;;;5088580;28;19932;-83
2022/09/16 00:29:31;;;;;;;;;;;14.00;99.90;;;;;;5074726;28;19990;-83
2022/09/16 00:31:58;;;;;;;;;;;14.10;99.90;;;;;;5062708;28;20409;-83
2022/09/16 00:34:25;;;;;;;;;;;14.10;99.90;;;;;;5046018;28;20024;-83
2022/09/16 00:36:51;;;;;;;;;;;14.10;99.90;;;;;;5061218;28;20393;-83
2022/09/16 00:39:20;;;;;;;;;;;14.10;99.90;;;;;;5062203;28;19947;-83
2022/09/16 00:41:48;;;;;;;;;;;14.00;99.90;;;;;;5059651;28;19933;-83
2022/09/16 00:44:33;;;;;;;;;;;14.00;99.90;;;;;;5065756;28;19933;-83
2022/09/16 00:47:00;;;;;;;;;;;14.00;99.90;;;;;;5072371;28;19939;-84
2022/09/16 00:49:29;;;;;;;;;;;13.70;99.90;;;;;;5056937;28;19924;-84
2022/09/16 00:51:57;;;;;;;;;;;14.00;99.90;;;;;;5076344;28;19912;-85
2022/09/16 00:54:25;;;;;;;;;;;13.90;99.90;;;;;;5094016;28;19978;-84
2022/09/16 00:56:53;;;;;;;;;;;13.80;99.90;;;;;;5093004;28;19916;-84
2022/09/16 00:59:23;;;;;;;;;;;13.80;99.90;;;;;;5071895;28;19951;-84
2022/09/16 01:01:50;;;;;;;;;;;13.80;99.90;;;;;;5063122;28;20007;-82
2022/09/16 01:04:19;;;;;;;;;;;13.80;99.90;;;;;;5058772;28;19933;-83
2022/09/16 01:06:46;;;;;;;;;;;13.80;99.90;;;;;;5062067;28;19948;-84
2022/09/16 01:09:13;;;;;;;;;;;13.80;99.90;;;;;;5060053;28;19964;-81
2022/09/16 01:11:41;;;;;;;;;;;13.80;99.90;;;;;;5060652;28;19931;-82
2022/09/16 01:16:57;;;;;;;;;;;13.80;99.90;;;;;;5057891;28;19924;-82
2022/09/16 01:19:32;;;;;;;;;;;13.80;99.90;;;;;;5072862;28;19988;-83
2022/09/16 01:22:02;;;;;;;;;;;13.80;99.90;;;;;;5052199;28;20004;-83
2022/09/16 01:24:38;;;;;;;;;;;13.80;99.90;;;;;;5072521;28;19932;-84
2022/09/16 01:27:23;;;;;;;;;;;13.80;99.90;;;;;;5044807;28;19939;-83
2022/09/16 01:30:06;;;;;;;;;;;13.80;99.90;;;;;;5053995;28;19964;-82
2022/09/16 01:32:37;;;;;;;;;;;13.80;99.90;;;;;;5073501;28;19947;-82
2022/09/16 01:35:08;;;;;;;;;;;13.80;99.90;;;;;;5067629;28;19939;-84
2022/09/16 01:37:40;;;;;;;;;;;13.80;99.90;;;;;;5053657;28;20413;-84
2022/09/16 01:40:11;;;;;;;;;;;13.80;99.90;;;;;;5052720;28;19932;-82
2022/09/16 01:42:40;;;;;;;;;;;13.80;99.90;;;;;;5066081;28;19990;-84
2022/09/16 01:45:11;;;;;;;;;;;13.70;99.90;;;;;;5059418;28;19939;-83
2022/09/16 01:47:43;;;;;;;;;;;13.70;99.90;;;;;;5061297;28;19933;-84
2022/09/16 01:50:15;;;;;;;;;;;13.70;99.90;;;;;;5055135;28;19931;-83
2022/09/16 01:52:45;;;;;;;;;;;13.70;99.90;;;;;;5055681;28;19928;-83
2022/09/16 01:55:16;;;;;;;;;;;13.70;99.90;;;;;;5059167;28;19925;-84
2022/09/16 01:57:47;;;;;;;;;;;12.60;99.90;;;;;;5040445;28;19936;-84
2022/09/16 02:00:14;;;;;;;;;;;13.60;99.90;;;;;;5053422;28;19925;-83
2022/09/16 02:02:45;;;;;;;;;;;13.70;99.90;;;;;;5057462;28;19932;-84
2022/09/16 02:05:14;;;;;;;;;;;13.70;99.90;;;;;;5047329;28;19924;-83
2022/09/16 02:07:44;;;;;;;;;;;13.70;99.90;;;;;;5072370;28;20055;-84
2022/09/16 02:10:14;;;;;;;;;;;13.70;99.90;;;;;;5071974;28;20034;-84
2022/09/16 02:12:42;;;;;;;;;;;13.70;99.90;;;;;;5070466;28;19924;-83
2022/09/16 02:15:10;;;;;;;;;;;13.70;99.90;;;;;;5069906;28;19932;-84
2022/09/16 02:17:38;;;;;;;;;;;13.70;99.90;;;;;;5053911;28;19994;-83
2022/09/16 02:20:09;;;;;;;;;;;13.70;99.90;;;;;;5071989;28;19932;-84
2022/09/16 02:22:39;;;;;;;;;;;13.80;99.90;;;;;;5062455;28;19936;-84
2022/09/16 02:25:07;;;;;;;;;;;13.70;99.90;;;;;;5066851;28;19936;-83
2022/09/16 02:27:36;;;;;;;;;;;13.70;99.90;;;;;;5032473;28;19982;-84
2022/09/16 02:30:05;;;;;;;;;;;13.70;99.90;;;;;;5031915;28;20266;-84
2022/09/16 02:32:33;;;;;;;;;;;13.70;99.90;;;;;;5054539;28;19982;-83
2022/09/16 02:35:02;;;;;;;;;;;13.70;99.90;;;;;;5045270;28;19924;-83
2022/09/16 02:37:32;;;;;;;;;;;13.70;99.90;;;;;;5049628;28;19928;-83
2022/09/16 02:40:04;;;;;;;;;;;13.70;99.90;;;;;;5069464;28;19912;-85
2022/09/16 02:42:42;;;;;;;;;;;13.70;99.90;;;;;;5063852;28;20324;-83
2022/09/16 02:45:09;;;;;;;;;;;13.70;99.90;;;;;;5070067;28;19939;-83
2022/09/16 02:47:43;;;;;;;;;;;13.60;99.90;;;;;;5071877;28;19928;-83
2022/09/16 02:50:13;;;;;;;;;;;13.60;99.90;;;;;;5077296;28;20393;-83
2022/09/16 02:52:44;;;;;;;;;;;13.60;99.90;;;;;;5075602;28;20052;-83
2022/09/16 02:55:23;;;;;;;;;;;13.60;99.90;;;;;;5069465;28;19929;-82
2022/09/16 02:57:50;;;;;;;;;;;13.60;99.90;;;;;;5053468;28;19933;-84
2022/09/16 03:00:17;;;;;;;;;;;13.60;99.90;;;;;;5073782;28;19928;-83
2022/09/16 03:02:44;;;;;;;;;;;13.60;99.90;;;;;;5075495;28;19932;-84
2022/09/16 03:05:11;;;;;;;;;;;13.60;99.90;;;;;;5063723;28;19928;-84
2022/09/16 03:07:39;;;;;;;;;;;13.50;99.90;;;;;;5046720;28;19925;-84
2022/09/16 03:10:09;;;;;;;;;;;13.50;99.90;;;;;;5056440;28;19943;-84
2022/09/16 03:12:48;;;;;;;;;;;13.50;99.90;;;;;;5056516;28;19925;-85
2022/09/16 03:15:21;;;;;;;;;;;13.50;99.90;;;;;;5053407;28;19982;-84
2022/09/16 03:18:12;;;;;;;;;;;13.50;99.90;;;;;;5070149;28;19929;-85
2022/09/16 03:20:43;;;;;;;;;;;13.50;99.90;;;;;;5039367;28;19943;-85
2022/09/16 03:23:13;;;;;;;;;;;13.50;99.90;;;;;;5075162;28;19929;-85
2022/09/16 03:25:44;;;;;;;;;;;13.50;99.90;;;;;;5038523;28;19929;-85
2022/09/16 03:28:14;;;;;;;;;;;13.50;99.90;;;;;;5052496;28;19925;-85
2022/09/16 03:30:45;;;;;;;;;;;13.50;99.90;;;;;;5069909;28;19924;-84
2022/09/16 03:33:17;;;;;;;;;;;13.50;99.90;;;;;;5060554;28;19925;-83
2022/09/16 03:35:46;;;;;;;;;;;13.50;99.90;;;;;;5070322;28;19932;-85
2022/09/16 03:38:13;;;;;;;;;;;13.50;99.90;;;;;;5046839;28;19925;-85
2022/09/16 03:40:40;;;;;;;;;;;13.50;99.90;;;;;;5050245;28;19925;-85
2022/09/16 03:43:11;;;;;;;;;;;13.50;99.90;;;;;;5036998;28;20356;-85
2022/09/16 03:45:39;;;;;;;;;;;13.50;99.90;;;;;;5042493;28;19924;-85
2022/09/16 03:48:06;;;;;;;;;;;13.50;99.90;;;;;;5051497;28;19928;-85
2022/09/16 03:50:33;;;;;;;;;;;13.50;99.90;;;;;;5069291;28;19932;-85
2022/09/16 03:53:00;;;;;;;;;;;13.40;99.90;;;;;;5068199;28;19932;-85
2022/09/16 03:55:27;;;;;;;;;;;13.40;99.90;;;;;;5063412;28;19925;-84
2022/09/16 03:57:54;;;;;;;;;;;13.30;99.90;;;;;;5057642;28;19994;-86
2022/09/16 04:00:22;;;;;;;;;;;13.30;99.90;;;;;;5048544;28;20355;-85
2022/09/16 04:02:49;;;;;;;;;;;;;;;;;;5048937;28;20621;-86
2022/09/16 04:05:16;;;;;;;;;;;13.20;99.90;;;;;;5067191;28;19928;-85
2022/09/16 04:07:43;;;;;;;;;;;13.10;99.90;;;;;;5068884;28;19975;-85
2022/09/16 04:10:11;;;;;;;;;;;13.10;99.90;;;;;;5068341;28;19990;-85
2022/09/16 04:12:38;;;;;;;;;;;12.90;99.90;;;;;;5051143;28;19978;-86
2022/09/16 04:15:05;;;;;;;;;;;13.20;99.90;;;;;;5069379;28;19960;-86
2022/09/16 04:17:33;;;;;;;;;;;13.20;99.90;;;;;;5067602;28;19975;-86
2022/09/16 04:20:00;;;;;;;;;;;13.20;99.90;;;;;;5067040;28;19971;-86
2022/09/16 04:22:28;;;;;;;;;;;13.20;99.90;;;;;;5049321;28;19940;-87
2022/09/16 04:24:54;;;;;;;;;;;13.20;99.90;;;;;;5030867;28;19964;-86
2022/09/16 04:27:21;;;;;;;;;;;13.30;99.90;;;;;;5049481;28;20093;-86
2022/09/16 04:29:48;;;;;;;;;;;13.30;99.90;;;;;;5050529;28;19929;-85
2022/09/16 04:32:14;;;;;;;;;;;13.40;99.90;;;;;;5071083;28;19928;-86
2022/09/16 04:34:43;;;;;;;;;;;13.40;99.90;;;;;;5055175;28;19925;-85
2022/09/16 04:37:10;;;;;;;;;;;13.40;99.90;;;;;;5070495;28;19929;-85
2022/09/16 04:39:36;;;;;;;;;;;13.40;99.90;;;;;;5073496;28;20046;-85
2022/09/16 04:42:05;;;;;;;;;;;13.40;99.90;;;;;;5073937;28;19924;-85
2022/09/16 04:44:34;;;;;;;;;;;13.50;99.90;;;;;;5061493;28;20023;-85
2022/09/16 04:47:02;;;;;;;;;;;13.40;99.90;;;;;;5074674;28;19925;-85
2022/09/16 04:49:29;;;;;;;;;;;13.40;99.90;;;;;;5056610;28;20364;-85
2022/09/16 04:51:57;;;;;;;;;;;13.40;99.90;;;;;;5074304;28;19929;-85
2022/09/16 04:54:27;;;;;;;;;;;13.40;99.90;;;;;;5074763;28;20552;-85
2022/09/16 04:56:53;;;;;;;;;;;13.40;99.90;;;;;;5088402;28;19924;-84
2022/09/16 04:59:20;;;;;;;;;;;13.40;99.90;;;;;;5090448;28;20459;-85
2022/09/16 05:01:47;;;;;;;;;;;13.40;99.90;;;;;;5080577;28;20035;-85
2022/09/16 05:04:14;;;;;;;;;;;13.40;99.90;;;;;;5055929;28;19947;-85
2022/09/16 05:06:41;;;;;;;;;;;13.40;99.90;;;;;;5053263;28;19935;-85
2022/09/16 05:09:10;;;;;;;;;;;13.40;99.90;;;;;;5053506;28;19929;-82
2022/09/16 05:11:41;;;;;;;;;;;13.40;99.90;;;;;;5033101;28;19929;-82
2022/09/16 05:14:08;;;;;;;;;;;13.40;99.90;;;;;;5064875;28;19939;-83
2022/09/16 05:16:35;;;;;;;;;;;13.40;99.90;;;;;;5054500;28;19975;-82
2022/09/16 05:19:03;;;;;;;;;;;13.40;99.90;;;;;;5061450;28;19929;-83
2022/09/16 05:21:31;;;;;;;;;;;13.40;99.90;;;;;;5063001;28;20019;-83
2022/09/16 05:24:00;;;;;;;;;;;13.40;99.90;;;;;;5069571;28;19933;-82
2022/09/16 05:26:29;;;;;;;;;;;13.50;99.90;;;;;;5068256;28;19980;-82
2022/09/16 05:28:55;;;;;;;;;;;13.40;99.90;;;;;;5071090;28;19932;-83
2022/09/16 05:31:23;;;;;;;;;;;13.50;99.90;;;;;;5069370;28;19924;-82
2022/09/16 05:33:56;;;;;;;;;;;13.50;99.90;;;;;;5054683;28;20326;-86
2022/09/16 05:36:25;;;;;;;;;;;13.50;99.90;;;;;;5048534;28;20417;-85
2022/09/16 05:38:55;;;;;;;;;;;13.50;99.90;;;;;;5073908;28;19947;-86
2022/09/16 05:41:22;;;;;;;;;;;13.50;99.90;;;;;;5053043;28;19931;-86
2022/09/16 05:43:50;;;;;;;;;;;13.60;99.90;;;;;;5054467;28;20006;-86
2022/09/16 05:46:18;;;;;;;;;;;13.60;99.90;;;;;;5034437;28;20317;-84
2022/09/16 05:48:45;;;;;;;;;;;13.60;99.90;;;;;;5051067;28;19929;-85
2022/09/16 05:51:14;;;;;;;;;;;13.70;99.90;;;;;;5051618;28;20012;-86
2022/09/16 05:53:41;;;;;;;;;;;13.70;99.90;;;;;;5035785;28;20298;-86
2022/09/16 05:56:13;;;;;;;;;;;13.70;99.90;;;;;;5036414;28;19933;-85
2022/09/16 05:58:41;;;;;;;;;;;13.70;99.90;;;;;;5052404;28;19951;-85
2022/09/16 06:01:11;;;;;;;;;;;13.60;99.90;;;;;;5034014;28;19928;-85
2022/09/16 06:03:39;;;;;;;;;;;13.70;99.90;;;;;;5033831;28;19928;-84
2022/09/16 06:06:07;;;;;;;;;;;13.70;99.90;;;;;;5052298;28;19929;-86
2022/09/16 06:08:34;;;;;;;;;;;13.70;99.90;;;;;;5051398;28;19936;-85
2022/09/16 06:11:01;;;;;;;;;;;13.70;99.90;;;;;;5037163;28;19935;-86
2022/09/16 06:13:28;;;;;;;;;;;13.70;99.90;;;;;;5070270;28;19948;-86
2022/09/16 06:15:55;;;;;;;;;;;14.80;99.90;;;;;;5054268;28;19935;-86
2022/09/16 06:18:24;;;;;;;;;;;13.80;99.90;;;;;;5054078;28;20258;-86
2022/09/16 06:20:51;;;;;;;;;;;13.70;99.90;;;;;;5071807;28;19932;-84
2022/09/16 06:23:17;;;;;;;;;;;13.80;99.90;;;;;;5055145;28;19939;-86
2022/09/16 06:25:45;;;;;;;;;;;13.80;99.90;;;;;;5051610;28;20036;-87
2022/09/16 06:28:12;;;;;;;;;;;13.80;99.90;;;;;;5053955;28;20019;-85
2022/09/16 06:30:39;;;;;;;;;;;13.80;99.90;;;;;;5055858;28;19925;-84
2022/09/16 06:33:05;;;;;;;;;;;13.90;99.90;;;;;;5053463;28;19925;-84
2022/09/16 06:35:34;;;;;;;;;;;13.90;99.90;;;;;;5056857;28;19960;-85
2022/09/16 06:38:01;;;;;;;;;;;13.90;99.90;;;;;;5057648;28;19932;-85
2022/09/16 06:40:28;;;;;;;;;;;14.00;99.90;;;;;;5056454;28;19925;-86
2022/09/16 06:42:54;;;;;;;;;;;14.10;99.90;;;;;;5073527;28;20444;-85
2022/09/16 06:45:23;;;;;;;;;;;14.20;99.90;;;;;;5074548;28;19929;-85
2022/09/16 06:47:50;;;;;;;;;;;14.30;99.90;;;;;;5073836;28;20027;-85
2022/09/16 06:50:17;;;;;;;;;;;14.40;99.90;;;;;;5071135;28;19928;-85
2022/09/16 06:52:49;;;;;;;;;;;14.50;99.90;;;;;;5073495;28;20624;-86
2022/09/16 06:55:16;;;;;;;;;;;14.70;99.90;;;;;;5057621;28;19924;-86
2022/09/16 06:57:43;;;;;;;;;;;14.90;99.90;;;;;;5049957;28;21503;-86
2022/09/16 07:00:11;;;;;;;;;;;15.00;99.90;;;;;;5070404;28;19975;-85
2022/09/16 07:02:38;;;;;;;;;;;15.00;99.90;;;;;;5068454;28;19932;-85
2022/09/16 07:05:05;;;;;;;;;;;15.00;99.90;;;;;;5073757;28;20006;-85
2022/09/16 07:07:33;;;;;;;;;;;15.20;99.90;;;;;;5075967;28;19924;-85
2022/09/16 07:10:01;;;;;;;;;;;15.20;99.90;;;;;;5065713;28;19913;-86
2022/09/16 07:12:28;;;;;;;;;;;15.40;99.90;;;;;;5055496;28;19919;-86
2022/09/16 07:14:54;;;;;;;;;;;15.60;99.90;;;;;;5083480;28;20020;-85
2022/09/16 07:17:22;;;;;;;;;;;16.00;99.90;;;;;;5071879;28;19940;-85
2022/09/16 07:19:49;;;;;;;;;;;16.30;99.90;;;;;;5055455;28;20365;-85
2022/09/16 07:22:17;;;;;;;;;;;16.70;99.90;;;;;;5073379;28;19925;-84
2022/09/16 07:24:45;;;;;;;;;;;16.90;99.90;;;;;;5071683;28;19929;-85
2022/09/16 07:27:15;;;;;;;;;;;17.40;99.90;;;;;;5065656;28;19974;-83
2022/09/16 07:29:42;;;;;;;;;;;18.00;99.90;;;;;;5069929;28;19954;-83
2022/09/16 07:32:08;;;;;;;;;;;18.00;99.90;;;;;;5065896;28;19924;-83
2022/09/16 07:34:35;;;;;;;;;;;18.40;99.90;;;;;;5056446;28;19931;-84
2022/09/16 07:37:03;;;;;;;;;;;18.90;99.90;;;;;;5053907;28;19928;-84
2022/09/16 07:39:30;;;;;;;;;;;19.00;99.90;;;;;;5043284;28;20011;-84
2022/09/16 07:41:56;;;;;;;;;;;19.50;99.90;;;;;;5062213;28;19928;-84
2022/09/16 07:44:25;;;;;;;;;;;20.00;99.90;;;;;;5046201;28;19935;-84
2022/09/16 07:46:52;;;;;;;;;;;20.50;99.90;;;;;;5067911;28;19948;-84
2022/09/16 07:49:19;;;;;;;;;;;20.70;99.90;;;;;;5070229;28;20188;-84
2022/09/16 07:51:45;;;;;;;;;;;20.90;99.90;;;;;;5055789;28;19929;-85
2022/09/16 07:54:14;;;;;;;;;;;21.20;99.90;;;;;;5061443;28;19924;-86
2022/09/16 07:56:42;;;;;;;;;;;21.40;99.90;;;;;;5086492;28;19955;-84
2022/09/16 07:59:12;;;;;;;;;;;21.60;99.90;;;;;;5059619;28;20000;-85
2022/09/16 08:01:41;;;;;;;;;;;21.80;99.90;;;;;;5066569;28;19940;-84
2022/09/16 08:04:07;;;;;;;;;;;21.90;99.90;;;;;;5067221;28;19928;-85
2022/09/16 08:06:37;;;;;;;;;;;22.10;99.90;;;;;;5070712;28;19924;-85
2022/09/16 08:09:04;;;;;;;;;;;22.40;99.90;;;;;;5069472;28;19935;-85
2022/09/16 08:11:31;;;;;;;;;;;22.50;99.90;;;;;;5050677;28;20402;-86
2022/09/16 08:13:57;;;;;;;;;;;22.70;99.90;;;;;;5055960;28;19928;-86
2022/09/16 08:16:24;;;;;;;;;;;22.90;99.90;;;;;;5047706;28;19932;-84
2022/09/16 08:18:54;;;;;;;;;;;23.00;99.90;;;;;;5035811;28;20360;-86
2022/09/16 08:21:22;;;;;;;;;;;22.80;99.90;;;;;;5067151;28;19997;-85
2022/09/16 08:23:48;;;;;;;;;;;21.90;99.90;;;;;;5071436;28;19924;-84
2022/09/16 08:26:16;;;;;;;;;;;22.70;99.90;;;;;;5072283;28;19928;-86
2022/09/16 08:28:44;;;;;;;;;;;23.30;99.90;;;;;;5082666;28;20627;-85
2022/09/16 08:31:12;;;;;;;;;;;22.70;99.90;;;;;;5073266;28;20027;-86
2022/09/16 08:33:38;;;;;;;;;;;22.40;99.90;;;;;;5058334;28;20023;-84
2022/09/16 08:36:08;;;;;;;;;;;21.80;99.90;;;;;;5090985;28;19924;-85
2022/09/16 08:38:35;;;;;;;;;;;21.40;99.90;;;;;;5094618;28;19940;-84
2022/09/16 08:41:06;;;;;;;;;;;21.20;99.90;;;;;;5090388;28;19925;-84
2022/09/16 08:43:36;;;;;;;;;;;21.20;99.90;;;;;;5079492;28;19955;-86
2022/09/16 08:46:08;;;;;;;;;;;21.00;99.90;;;;;;5054582;28;20375;-87
2022/09/16 08:48:42;;;;;;;;;;;21.10;99.90;;;;;;5051593;28;20372;-87
2022/09/16 08:51:12;;;;;;;;;;;21.30;99.90;;;;;;5052263;28;20432;-85
2022/09/16 08:53:41;;;;;;;;;;;21.40;99.90;;;;;;5069384;28;19998;-87
2022/09/16 08:56:12;;;;;;;;;;;21.30;99.90;;;;;;5072091;28;19928;-87
2022/09/16 08:58:40;;;;;;;;;;;20.90;99.90;;;;;;5054343;28;19925;-87
2022/09/16 09:01:13;;;;;;;;;;;20.90;99.90;;;;;;5053885;28;19944;-86
2022/09/16 09:03:41;;;;;;;;;;;21.40;99.90;;;;;;5052536;28;19935;-86
2022/09/16 09:06:15;;;;;;;;;;;21.40;99.90;;;;;;5071320;28;19928;-85
2022/09/16 09:08:45;;;;;;;;;;;21.80;99.90;;;;;;5070888;28;19935;-86
2022/09/16 09:11:16;;;;;;;;;;;21.90;99.90;;;;;;5071598;28;19936;-85
2022/09/16 09:13:56;;;;;;;;;;;21.60;99.90;;;;;;5072338;28;19983;-86
2022/09/16 09:16:28;;;;;;;;;;;21.60;99.90;;;;;;5069935;28;20642;-86
2022/09/16 09:18:59;;;;;;;;;;;21.10;99.90;;;;;;5071016;28;19928;-86
2022/09/16 09:21:31;;;;;;;;;;;20.70;99.90;;;;;;5053129;28;19924;-86
2022/09/16 09:24:03;;;;;;;;;;;20.30;99.90;;;;;;5070805;28;19924;-86
2022/09/16 09:26:34;;;;;;;;;;;19.90;99.90;;;;;;5071594;28;19924;-87
2022/09/16 09:29:12;;;;;;;;;;;19.60;99.90;;;;;;5070808;28;19928;-88
2022/09/16 09:31:43;;;;;;;;;;;19.50;99.90;;;;;;5057696;28;19959;-87
2022/09/16 09:34:16;;;;;;;;;;;19.30;99.90;;;;;;5061263;28;19924;-86
2022/09/16 09:36:54;;;;;;;;;;;19.40;99.90;;;;;;5078693;28;19931;-86
2022/09/16 09:39:32;;;;;;;;;;;19.30;99.90;;;;;;5064810;28;19936;-86
2022/09/16 09:42:03;;;;;;;;;;;19.30;99.90;;;;;;5043950;28;19935;-84
2022/09/16 09:44:41;;;;;;;;;;;19.90;99.90;;;;;;5061303;28;19999;-86
2022/09/16 09:47:10;;;;;;;;;;;19.30;99.90;;;;;;5060197;28;20401;-88
2022/09/16 09:49:39;;;;;;;;;;;19.00;99.90;;;;;;5044844;28;20282;-84
2022/09/16 09:52:10;;;;;;;;;;;19.20;99.90;;;;;;5046297;28;19935;-86
2022/09/16 09:54:40;;;;;;;;;;;19.20;99.90;;;;;;5048825;28;19929;-84
2022/09/16 09:57:10;;;;;;;;;;;19.30;99.90;;;;;;5043540;28;19936;-85
2022/09/16 09:59:40;;;;;;;;;;;19.00;99.90;;;;;;5043692;28;20409;-87
2022/09/16 10:02:12;;;;;;;;;;;19.30;99.90;;;;;;5066747;28;19925;-84
2022/09/16 10:04:40;;;;;;;;;;;19.20;99.90;;;;;;5077178;28;19943;-87
2022/09/16 10:07:09;;;;;;;;;;;19.60;99.90;;;;;;5064442;28;19984;-87
2022/09/16 10:09:36;;;;;;;;;;;19.40;99.90;;;;;;5047694;28;19935;-86
2022/09/16 10:12:04;;;;;;;;;;;19.80;99.90;;;;;;5046898;28;20390;-85
2022/09/16 10:14:31;;;;;;;;;;;20.30;99.90;;;;;;5042961;28;19925;-85
2022/09/16 10:17:01;;;;;;;;;;;20.80;99.90;;;;;;5035969;28;19932;-86
2022/09/16 10:19:29;;;;;;;;;;;20.80;99.90;;;;;;5035719;28;19968;-86
2022/09/16 10:21:56;;;;;;;;;;;20.90;99.90;;;;;;5049680;28;19924;-86
2022/09/16 10:24:33;;;;;;;;;;;20.50;99.90;;;;;;5070961;28;19971;-86
2022/09/16 10:27:01;;;;;;;;;;;20.00;99.90;;;;;;5056059;28;19928;-85
2022/09/16 10:29:28;;;;;;;;;;;20.00;99.90;;;;;;5046801;28;19982;-85
2022/09/16 10:31:57;;;;;;;;;;;19.90;99.90;;;;;;5035997;28;19936;-85
2022/09/16 10:34:28;;;;;;;;;;;20.00;99.90;;;;;;5058188;28;20510;-87
2022/09/16 10:36:59;;;;;;;;;;;20.60;99.90;;;;;;5054602;28;19929;-84
2022/09/16 10:39:27;;;;;;;;;;;20.50;99.90;;;;;;5058390;28;19932;-84
2022/09/16 10:41:55;;;;;;;;;;;20.90;99.90;;;;;;5063960;28;19963;-82
2022/09/16 10:44:22;;;;;;;;;;;21.00;99.90;;;;;;5074441;28;19925;-82
2022/09/16 10:46:50;;;;;;;;;;;21.00;99.90;;;;;;5077443;28;19925;-82
2022/09/16 10:49:25;;;;;;;;;;;20.90;99.90;;;;;;5074170;28;19931;-82
2022/09/16 10:51:52;;;;;;;;;;;20.50;99.90;;;;;;5072222;28;20023;-83
2022/09/16 10:54:27;;;;;;;;;;;20.10;99.90;;;;;;5074190;28;19924;-82
2022/09/16 10:56:55;;;;;;;;;;;19.50;99.90;;;;;;5051624;28;19935;-82
2022/09/16 10:59:21;;;;;;;;;;;19.70;99.90;;;;;;5074097;28;19961;-82
2022/09/16 11:01:52;;;;;;;;;;;19.30;99.90;;;;;;5051350;28;19951;-82
2022/09/16 11:04:34;;;;;;;;;;;19.20;99.90;;;;;;5070424;28;19935;-84
2022/09/16 11:07:06;;;;;;;;;;;19.20;99.90;;;;;;5076414;28;19928;-82
2022/09/16 11:09:39;;;;;;;;;;;19.50;99.90;;;;;;5075342;28;19935;-84
2022/09/16 11:12:14;;;;;;;;;;;19.30;99.90;;;;;;5076938;28;19928;-82
2022/09/16 11:14:44;;;;;;;;;;;19.40;99.90;;;;;;5075945;28;19935;-83
2022/09/16 11:17:22;;;;;;;;;;;19.50;99.90;;;;;;5076753;28;19928;-81
2022/09/16 11:19:56;;;;;;;;;;;19.40;99.90;;;;;;5077081;28;19974;-81
2022/09/16 11:22:27;;;;;;;;;;;19.20;99.90;;;;;;5057545;28;19936;-81
2022/09/16 11:24:59;;;;;;;;;;;18.90;99.90;;;;;;5057830;28;19943;-81
2022/09/16 11:27:35;;;;;;;;;;;18.60;99.90;;;;;;5074403;28;19932;-84
2022/09/16 11:30:04;;;;;;;;;;;18.20;99.90;;;;;;5053062;28;19932;-83
2022/09/16 11:32:36;;;;;;;;;;;17.50;99.90;;;;;;5036336;28;19929;-83
2022/09/16 11:35:16;;;;;;;;;;;17.00;99.90;;;;;;5035653;28;19944;-83
2022/09/16 11:37:45;;;;;;;;;;;16.40;99.90;;;;;;5058826;28;20053;-83
2022/09/16 11:40:19;;;;;;;;;;;16.40;99.90;;;;;;5080770;28;19925;-86
2022/09/16 11:42:50;;;;;;;;;;;16.40;99.90;;;;;;5067192;28;20417;-84
2022/09/16 11:45:23;;;;;;;;;;;16.90;99.90;;;;;;5070350;28;19948;-83
2022/09/16 11:47:56;;;;;;;;;;;16.70;99.90;;;;;;5052797;28;19925;-84
2022/09/16 11:50:30;;;;;;;;;;;16.80;99.90;;;;;;5055652;28;19929;-84
2022/09/16 11:53:09;;;;;;;;;;;17.00;99.90;;;;;;5073066;28;19929;-84
2022/09/16 11:55:41;;;;;;;;;;;17.10;99.90;;;;;;5073976;28;20379;-86
2022/09/16 11:58:20;;;;;;;;;;;17.20;99.90;;;;;;5075371;28;19925;-85
2022/09/16 12:00:48;;;;;;;;;;;17.50;99.90;;;;;;5070831;28;20034;-81
2022/09/16 12:03:20;;;;;;;;;;;17.60;99.90;;;;;;5070056;28;19966;-82
2022/09/16 12:05:52;;;;;;;;;;;17.60;99.90;;;;;;5069433;28;19940;-83
2022/09/16 12:08:22;;;;;;;;;;;17.50;99.90;;;;;;5070087;28;20015;-82
2022/09/16 12:10:51;;;;;;;;;;;17.50;99.90;;;;;;5075066;28;20000;-80
2022/09/16 12:13:21;;;;;;;;;;;17.60;99.90;;;;;;5078038;28;19932;-80
2022/09/16 12:15:49;;;;;;;;;;;17.70;99.90;;;;;;5076919;28;19929;-81
2022/09/16 12:18:18;;;;;;;;;;;17.60;99.90;;;;;;5062216;28;19932;-81
2022/09/16 12:20:46;;;;;;;;;;;17.60;99.90;;;;;;5068132;28;20542;-80
2022/09/16 12:23:17;;;;;;;;;;;17.60;99.90;;;;;;5067735;28;20306;-80
2022/09/16 12:25:46;;;;;;;;;;;17.80;99.90;;;;;;5058253;28;19933;-80
2022/09/16 12:28:15;;;;;;;;;;;18.10;99.90;;;;;;5068081;28;20015;-81
2022/09/16 12:30:45;;;;;;;;;;;18.20;99.90;;;;;;5062427;28;19928;-80
2022/09/16 12:33:17;;;;;;;;;;;18.20;99.90;;;;;;5056379;28;19956;-79
2022/09/16 12:35:56;;;;;;;;;;;19.80;99.90;;;;;;5065313;28;20456;-80
2022/09/16 12:38:23;;;;;;;;;;;18.50;99.90;;;;;;5044666;28;19924;-80
2022/09/16 12:41:00;;;;;;;;;;;18.70;99.90;;;;;;5068442;28;19929;-79
2022/09/16 12:43:40;;;;;;;;;;;18.90;99.90;;;;;;5060601;28;20290;-80
2022/09/16 12:46:40;;;;;;;;;;;18.40;99.90;;;;;;5063742;28;19928;-80
2022/09/16 12:49:28;;;;;;;;;;;18.40;99.90;;;;;;5001715;28;19925;-80
2022/09/16 12:52:04;;;;;;;;;;;18.40;99.90;;;;;;5001120;28;19934;-80
2022/09/16 12:54:49;;;;;;;;;;;18.50;99.90;;;;;;5041699;28;19942;-80
2022/09/16 12:57:22;;;;;;;;;;;18.60;99.90;;;;;;5046306;28;19939;-79
2022/09/16 13:00:10;;;;;;;;;;;18.60;99.90;;;;;;5063525;28;19928;-79
2022/09/16 13:02:38;;;;;;;;;;;18.60;99.90;;;;;;5063971;28;19978;-79
2022/09/16 13:05:11;;;;;;;;;;;18.50;99.90;;;;;;5075422;28;19932;-77
2022/09/16 13:07:40;;;;;;;;;;;18.60;99.90;;;;;;5075849;28;20368;-80
2022/09/16 13:10:07;;;;;;;;;;;18.60;99.90;;;;;;5065510;28;19936;-80
2022/09/16 13:12:34;;;;;;;;;;;18.60;99.90;;;;;;5070022;28;20001;-79
2022/09/16 13:15:02;;;;;;;;;;;18.60;99.90;;;;;;5057295;28;19928;-79
2022/09/16 13:17:31;;;;;;;;;;;18.80;99.90;;;;;;5073315;28;19932;-79
2022/09/16 13:20:03;;;;;;;;;;;18.80;99.90;;;;;;5062210;28;19951;-79
2022/09/16 13:22:32;;;;;;;;;;;18.90;99.90;;;;;;5063006;28;19925;-80
2022/09/16 13:25:08;;;;;;;;;;;18.90;99.90;;;;;;5055216;28;19932;-80
2022/09/16 13:27:36;;;;;;;;;;;18.90;99.90;;;;;;5065965;28;19971;-80
2022/09/16 13:30:12;;;;;;;;;;;18.80;99.90;;;;;;5067871;28;19964;-80
2022/09/16 13:32:42;;;;;;;;;;;18.60;99.90;;;;;;5060358;28;19928;-81
2022/09/16 13:35:21;;;;;;;;;;;18.30;99.90;;;;;;5059232;28;19929;-80
2022/09/16 13:37:49;;;;;;;;;;;18.00;99.90;;;;;;5064699;28;19924;-80
2022/09/16 13:40:18;;;;;;;;;;;17.90;99.90;;;;;;5059083;28;20002;-80
2022/09/16 13:42:45;;;;;;;;;;;17.70;99.90;;;;;;5066690;28;19933;-81
2022/09/16 13:45:32;;;;;;;;;;;17.60;99.90;;;;;;5070560;28;19929;-78
2022/09/16 13:48:00;;;;;;;;;;;17.70;99.90;;;;;;5053803;28;19937;-78
2022/09/16 13:50:27;;;;;;;;;;;17.70;99.90;;;;;;5055294;28;19939;-79
2022/09/16 13:52:55;;;;;;;;;;;17.90;99.90;;;;;;5064563;28;19964;-79
2022/09/16 13:55:24;;;;;;;;;;;17.80;99.90;;;;;;5061931;28;20477;-79
2022/09/16 13:57:57;;;;;;;;;;;17.70;99.90;;;;;;5062944;28;19955;-79
2022/09/16 14:00:25;;;;;;;;;;;17.70;99.90;;;;;;5064325;28;20316;-79
2022/09/16 14:03:00;;;;;;;;;;;17.50;99.90;;;;;;5045383;28;19933;-79
2022/09/16 14:05:32;;;;;;;;;;;17.20;99.90;;;;;;5067751;28;19928;-80
2022/09/16 14:08:04;;;;;;;;;;;17.00;99.90;;;;;;5065996;28;19932;-83
2022/09/16 14:10:35;;;;;;;;;;;16.80;99.90;;;;;;5067804;28;19928;-79
2022/09/16 14:13:09;;;;;;;;;;;16.80;99.90;;;;;;5064124;28;19925;-79
2022/09/16 14:15:43;;;;;;;;;;;16.90;99.90;;;;;;5065868;28;20070;-79
2022/09/16 14:18:12;;;;;;;;;;;16.90;99.90;;;;;;5067994;28;20711;-80
2022/09/16 14:20:39;;;;;;;;;;;17.10;99.90;;;;;;5066490;28;19993;-80
2022/09/16 14:23:15;;;;;;;;;;;17.10;99.90;;;;;;5065840;28;19924;-80
2022/09/16 14:25:43;;;;;;;;;;;17.10;99.90;;;;;;5072271;28;20476;-80
2022/09/16 14:28:15;;;;;;;;;;;17.20;99.90;;;;;;5073430;28;19950;-80
2022/09/16 14:30:45;;;;;;;;;;;17.20;99.90;;;;;;5073119;28;20405;-80
2022/09/16 14:33:13;;;;;;;;;;;17.20;99.90;;;;;;5072994;28;19928;-80
2022/09/16 14:35:40;;;;;;;;;;;17.20;99.90;;;;;;5074552;28;20023;-80